Terminal Aerodrome Forecast
Issued by NWS

Home | Current Version | Previous Version | Text Only | Print | Product List | Glossary On
Versions: 1 2 3 4 5 6 7 8 9 10 11 12 13 14 15 16 17 18 19 20 21 22 23 24 25 26 27 28 29 30 31 32 33 34 35 36 37 38 39 40 41 42 43 44 45 46 47 48 49 50
382
FTUS41 KCTP 170546
TAFBFD
TAF
KBFD 170546Z 1706/1806 00000KT 6SM BR OVC030
      TEMPO 1708/1710 5SM BR BKN004 OVC025
     FM171000 VRB03KT 5SM BR OVC007
     FM171300 VRB03KT P6SM OVC010
     FM171800 17004KT P6SM OVC020
     FM180200 16004KT 5SM BR VCSH OVC020=

USA.gov is the U.S. government's official web portal to all federal, state and local government web resources and services.